Time;durP1;ratioP1;P1;durP2;ratioP2;P2;SDS_P1;SDS_P2;PMS_P1;PMS_P2;Temp;Humidity;BMP_temperature;BMP_pressure;BME280_temperature;BME280_humidity;BME280_pressure;Samples;Min_cycle;Max_cycle;Signal;HPM_P1;HPM_P2
2023/11/04 00:00:49;;;;;;;8.43;1.63;;;;;;;6.61;100.00;98681.91;4914257;29;20035;-75
2023/11/04 00:03:14;;;;;;;4.22;1.27;;;;;;;6.56;100.00;98694.19;4928016;29;20192;-75
2023/11/04 00:05:40;;;;;;;4.57;1.35;;;;;;;6.49;100.00;98687.69;4916996;29;20103;-74
2023/11/04 00:08:06;;;;;;;5.72;1.65;;;;;;;6.51;100.00;98693.50;4932719;29;20955;-75
2023/11/04 00:10:32;;;;;;;8.20;1.83;;;;;;;6.49;100.00;98695.66;4931348;29;20123;-77
2023/11/04 00:12:57;;;;;;;9.88;2.33;;;;;;;6.53;100.00;98692.13;4937891;28;20035;-75
2023/11/04 00:15:23;;;;;;;6.78;1.60;;;;;;;6.48;100.00;98694.88;4933739;29;20036;-76
2023/11/04 00:17:49;;;;;;;6.72;1.65;;;;;;;6.51;100.00;98696.97;4917291;29;20119;-76
2023/11/04 00:20:15;;;;;;;6.93;2.03;;;;;;;6.54;100.00;98693.69;4910482;29;20040;-76
2023/11/04 00:22:41;;;;;;;4.80;1.77;;;;;;;6.61;100.00;98689.88;4935379;29;20040;-76
2023/11/04 00:25:07;;;;;;;5.38;1.70;;;;;;;6.62;100.00;98691.44;4925807;29;20150;-76
2023/11/04 00:27:33;;;;;;;5.35;1.55;;;;;;;6.61;100.00;98690.66;4929016;29;20027;-75
2023/11/04 00:29:59;;;;;;;5.00;1.80;;;;;;;6.61;100.00;98695.97;4915740;29;20043;-76
2023/11/04 00:32:24;;;;;;;6.75;1.58;;;;;;;6.58;100.00;98701.91;4925912;29;20036;-76
2023/11/04 00:35:10;;;;;;;6.78;1.70;;;;;;;6.37;100.00;98690.00;4912966;29;20083;-76
2023/11/04 00:37:56;;;;;;;5.35;1.85;;;;;;;6.27;100.00;98691.75;4894844;29;20107;-76
2023/11/04 00:40:42;;;;;;;5.18;1.52;;;;;;;6.15;100.00;98702.06;4906291;29;20073;-76
2023/11/04 00:43:27;;;;;;;10.93;1.67;;;;;;;6.14;100.00;98702.34;4908248;29;20050;-75
2023/11/04 00:46:13;;;;;;;5.05;1.80;;;;;;;6.21;100.00;98703.56;4895832;29;20054;-75
2023/11/04 00:48:59;;;;;;;10.20;1.75;;;;;;;6.16;100.00;98710.81;4898040;29;20043;-75
2023/11/04 00:51:45;;;;;;;10.43;1.63;;;;;;;6.17;100.00;98712.41;4894818;29;20051;-75
2023/11/04 00:54:30;;;;;;;6.95;1.50;;;;;;;6.10;100.00;98706.69;4922237;29;20071;-76
2023/11/04 00:57:15;;;;;;;9.98;5.25;;;;;;;6.05;100.00;98710.19;4925295;23;20059;-77
2023/11/04 01:00:04;;;;;;;7.50;2.22;;;;;;;5.97;100.00;98705.53;4927887;29;20031;-78
2023/11/04 01:02:55;;;;;;;6.97;1.60;;;;;;;5.91;100.00;98710.13;4904662;29;20040;-79
2023/11/04 01:05:41;;;;;;;8.20;1.75;;;;;;;5.81;100.00;98699.59;4911393;29;20031;-79
2023/11/04 01:08:30;;;;;;;8.05;1.90;;;;;;;5.86;100.00;98706.72;4895839;29;20035;-79
2023/11/04 01:11:17;;;;;;;7.57;1.55;;;;;;;5.85;100.00;98705.94;4910573;29;20082;-80
2023/11/04 01:14:02;;;;;;;7.82;2.08;;;;;;;5.88;100.00;98710.66;4898057;29;20052;-79
2023/11/04 01:16:52;;;;;;;11.65;3.13;;;;;;;5.91;100.00;98707.47;4910228;29;20040;-78
2023/11/04 01:19:38;;;;;;;6.10;1.60;;;;;;;5.98;100.00;98704.47;4916254;29;20071;-78
2023/11/04 01:22:23;;;;;;;4.53;1.40;;;;;;;6.04;100.00;98703.31;4913938;29;20034;-81
2023/11/04 01:25:12;;;;;;;6.72;2.08;;;;;;;6.10;100.00;98712.78;4904150;29;20054;-75
2023/11/04 01:28:01;;;;;;;6.90;1.92;;;;;;;6.20;100.00;98701.97;4913592;29;20110;-79
2023/11/04 01:30:47;;;;;;;5.72;1.83;;;;;;;6.27;100.00;98707.72;4912693;29;20044;-78
2023/11/04 01:33:33;;;;;;;10.15;2.05;;;;;;;6.33;100.00;98694.34;4884275;29;20039;-79
2023/11/04 01:36:19;;;;;;;6.82;2.03;;;;;;;6.37;100.00;98690.00;4908095;29;20035;-77
2023/11/04 01:39:05;;;;;;;6.13;1.77;;;;;;;6.41;100.00;98691.00;4906276;29;20043;-77
2023/11/04 01:41:50;;;;;;;5.38;1.60;;;;;;;6.44;100.00;98687.78;4914488;29;20054;-79
2023/11/04 01:44:37;;;;;;;6.03;1.75;;;;;;;6.42;100.00;98682.75;4906326;29;20117;-78
2023/11/04 01:47:22;;;;;;;5.55;1.65;;;;;;;6.44;100.00;98685.13;4877632;29;20058;-79
2023/11/04 01:50:10;;;;;;;9.10;2.20;;;;;;;6.41;100.00;98683.81;4923160;29;20055;-78
2023/11/04 01:52:57;;;;;;;6.25;1.85;;;;;;;6.37;100.00;98685.50;4896867;29;20063;-80
2023/11/04 01:55:43;;;;;;;8.20;1.80;;;;;;;6.32;100.00;98680.28;4906512;29;20676;-79
2023/11/04 01:58:31;;;;;;;6.00;1.60;;;;;;;6.27;100.00;98681.13;4899007;29;20418;-80
2023/11/04 02:01:17;;;;;;;5.97;1.80;;;;;;;6.26;100.00;98684.88;4899681;29;20040;-80
2023/11/04 02:04:04;;;;;;;9.13;2.05;;;;;;;6.21;100.00;98682.28;4913438;29;20044;-74
2023/11/04 02:06:49;;;;;;;8.65;1.80;;;;;;;6.17;100.00;98673.34;4892611;29;20028;-77
2023/11/04 02:09:35;;;;;;;9.13;1.63;;;;;;;6.12;100.00;98669.97;4897802;29;20039;-78
2023/11/04 02:12:23;;;;;;;7.53;1.70;;;;;;;6.09;100.00;98659.91;4908863;29;20047;-78
2023/11/04 02:15:15;;;;;;;7.40;2.40;;;;;;;6.05;100.00;98675.66;4922810;29;20485;-79
2023/11/04 02:18:00;;;;;;;8.68;2.58;;;;;;;6.02;100.00;98668.25;4895674;29;20047;-77
2023/11/04 02:20:47;;;;;;;5.88;1.70;;;;;;;5.97;100.00;98668.34;4880536;29;20048;-79
2023/11/04 02:23:32;;;;;;;6.15;1.50;;;;;;;5.94;100.00;98667.03;4912918;29;20131;-78
2023/11/04 02:26:18;;;;;;;2.75;1.88;;;;;;;5.92;100.00;98668.41;4909934;29;20086;-76
2023/11/04 02:29:04;;;;;;;4.78;1.83;;;;;;;5.87;100.00;98660.47;4911086;29;20051;-78
2023/11/04 02:31:50;;;;;;;5.35;1.70;;;;;;;5.84;100.00;98672.50;4898425;29;20043;-76
2023/11/04 02:34:36;;;;;;;5.90;1.92;;;;;;;5.82;100.00;98665.88;4914395;29;20701;-77
2023/11/04 02:37:21;;;;;;;3.83;1.42;;;;;;;5.79;100.00;98663.78;4897869;29;21004;-73
2023/11/04 02:40:10;;;;;;;4.03;1.83;;;;;;;5.74;100.00;98667.31;4908402;29;20458;-76
2023/11/04 02:42:56;;;;;;;4.15;1.83;;;;;;;5.70;100.00;98669.75;4906192;29;20047;-74
2023/11/04 02:45:42;;;;;;;6.28;1.55;;;;;;;5.67;100.00;98670.31;4913191;29;20083;-77
2023/11/04 02:48:28;;;;;;;8.30;1.80;;;;;;;5.63;100.00;98669.34;4911728;29;20047;-78
2023/11/04 02:51:16;;;;;;;5.97;1.95;;;;;;;5.58;100.00;98661.44;4909229;29;20046;-79
2023/11/04 02:54:01;;;;;;;4.90;1.70;;;;;;;5.56;100.00;98660.94;4910379;29;20427;-76
2023/11/04 02:56:47;;;;;;;8.82;1.83;;;;;;;5.53;100.00;98669.47;4896503;29;20035;-78
2023/11/04 02:59:32;;;;;;;7.28;1.40;;;;;;;5.51;100.00;98671.63;4909272;29;20044;-77
2023/11/04 03:02:18;;;;;;;5.57;1.52;;;;;;;5.47;100.00;98674.03;4910441;29;20493;-78
2023/11/04 03:05:04;;;;;;;5.63;1.88;;;;;;;5.47;100.00;98668.75;4923758;29;20083;-75
2023/11/04 03:07:49;;;;;;;7.88;1.90;;;;;;;5.43;100.00;98667.75;4906295;29;20036;-77
2023/11/04 03:10:35;;;;;;;5.53;1.52;;;;;;;5.38;100.00;98659.06;4890906;29;20040;-77
2023/11/04 03:13:21;;;;;;;6.03;1.77;;;;;;;5.40;100.00;98670.16;4897368;29;20031;-77
2023/11/04 03:16:08;;;;;;;4.32;2.03;;;;;;;5.38;100.00;98659.84;4907872;29;20062;-79
2023/11/04 03:18:53;;;;;;;6.25;1.60;;;;;;;5.36;100.00;98666.53;4915525;29;20036;-79
2023/11/04 03:21:43;;;;;;;6.68;1.80;;;;;;;5.33;100.00;98675.81;4896909;29;20122;-76
2023/11/04 03:24:28;;;;;;;6.50;1.88;;;;;;;5.31;100.00;98667.38;4903891;29;20158;-76
2023/11/04 03:27:14;;;;;;;5.75;1.80;;;;;;;5.28;100.00;98665.28;4893917;29;20044;-79
2023/11/04 03:30:00;;;;;;;4.57;1.70;;;;;;;5.26;100.00;98661.34;4906548;29;20050;-77
2023/11/04 03:32:45;;;;;;;4.20;1.40;;;;;;;5.25;100.00;98659.75;4900928;29;20051;-78
2023/11/04 03:35:31;;;;;;;6.47;1.40;;;;;;;5.24;100.00;98658.97;4891882;29;20059;-76
2023/11/04 03:38:17;;;;;;;3.33;2.13;;;;;;;5.20;100.00;98657.94;4898802;29;20074;-79
2023/11/04 03:41:02;;;;;;;6.38;1.80;;;;;;;5.21;100.00;98654.22;4924863;29;20146;-78
2023/11/04 03:43:50;;;;;;;3.95;1.65;;;;;;;5.18;100.00;98652.94;4911712;29;20459;-77
2023/11/04 03:46:36;;;;;;;5.35;1.70;;;;;;;5.17;100.00;98651.34;4895509;29;20730;-80
2023/11/04 03:49:22;;;;;;;6.50;1.80;;;;;;;5.16;100.00;98644.47;4894383;29;20048;-80
2023/11/04 03:52:09;;;;;;;7.72;1.90;;;;;;;5.15;100.00;98642.91;4920902;29;20036;-75
2023/11/04 03:54:54;;;;;;;5.72;2.17;;;;;;;5.16;100.00;98647.13;4912286;29;20050;-77
2023/11/04 03:57:40;;;;;;;5.57;2.17;;;;;;;5.17;100.00;98632.78;4905283;29;20398;-75
2023/11/04 04:00:27;;;;;;;6.60;1.50;;;;;;;5.15;100.00;98628.84;4912305;29;20072;-77
2023/11/04 04:03:14;;;;;;;4.15;1.60;;;;;;;5.14;100.00;98630.69;4914720;29;20461;-75
2023/11/04 04:06:00;;;;;;;8.98;1.73;;;;;;;5.15;100.00;98636.81;4926672;29;20047;-77
2023/11/04 04:08:46;;;;;;;3.10;1.33;;;;;;;5.11;100.00;98628.63;4906021;29;20046;-79
2023/11/04 04:11:32;;;;;;;6.80;1.25;;;;;;;5.08;100.00;98634.50;4903995;29;20416;-75
2023/11/04 04:14:19;;;;;;;6.38;1.90;;;;;;;5.06;100.00;98628.66;4928944;29;20071;-77
2023/11/04 04:17:05;;;;;;;7.88;2.17;;;;;;;5.03;100.00;98626.59;4921944;29;20498;-76
2023/11/04 04:19:51;;;;;;;3.67;1.13;;;;;;;5.00;100.00;98626.38;4912655;29;20054;-78
2023/11/04 04:22:38;;;;;;;4.13;1.45;;;;;;;4.99;100.00;98625.56;4924507;29;20047;-77
2023/11/04 04:25:24;;;;;;;4.28;1.20;;;;;;;4.97;100.00;98622.44;4911498;29;20726;-76
2023/11/04 04:28:09;;;;;;;3.65;2.13;;;;;;;4.95;100.00;98626.44;4910040;29;20043;-76
2023/11/04 04:30:55;;;;;;;6.30;1.50;;;;;;;4.94;100.00;98617.66;4909170;29;20043;-77
2023/11/04 04:33:41;;;;;;;5.72;1.50;;;;;;;4.93;100.00;98616.09;4907548;29;20035;-77
2023/11/04 04:36:27;;;;;;;7.90;1.55;;;;;;;4.91;100.00;98620.91;4895899;29;20100;-76
2023/11/04 04:39:12;;;;;;;5.03;1.77;;;;;;;4.87;100.00;98620.66;4896106;29;20050;-75
2023/11/04 04:41:58;;;;;;;5.45;1.63;;;;;;;4.86;100.00;98620.97;4923104;29;20435;-76
2023/11/04 04:44:44;;;;;;;5.65;1.50;;;;;;;4.83;100.00;98617.03;4913732;29;20486;-77
2023/11/04 04:47:30;;;;;;;5.95;1.58;;;;;;;4.83;100.00;98610.94;4909779;29;20864;-79
2023/11/04 04:50:15;;;;;;;3.95;1.60;;;;;;;4.81;100.00;98613.88;4910301;29;20079;-76
2023/11/04 04:53:01;;;;;;;7.57;1.60;;;;;;;4.82;100.00;98609.34;4898958;29;20069;-77
2023/11/04 04:55:47;;;;;;;3.03;1.23;;;;;;;4.82;100.00;98612.00;4927605;29;20047;-77
2023/11/04 04:58:33;;;;;;;6.90;1.20;;;;;;;4.81;100.00;98618.34;4905982;29;20823;-77
2023/11/04 05:01:19;;;;;;;3.95;2.15;;;;;;;4.83;100.00;98610.94;4898856;29;20051;-77
2023/11/04 05:04:05;;;;;;;3.92;1.40;;;;;;;4.80;100.00;98608.81;4909901;29;20035;-77
2023/11/04 05:06:50;;;;;;;6.18;1.60;;;;;;;4.80;100.00;98611.47;4913518;29;20043;-78
2023/11/04 05:09:36;;;;;;;4.50;1.27;;;;;;;4.78;100.00;98611.78;4908051;29;20040;-79
2023/11/04 05:12:22;;;;;;;3.50;1.27;;;;;;;4.76;100.00;98611.28;4922781;29;20114;-77
2023/11/04 05:15:08;;;;;;;3.38;1.35;;;;;;;4.73;100.00;98608.38;4918986;29;20127;-76
2023/11/04 05:17:53;;;;;;;4.13;1.20;;;;;;;4.73;100.00;98603.06;4914924;29;20501;-77
2023/11/04 05:20:39;;;;;;;5.70;1.40;;;;;;;4.70;100.00;98598.34;4900734;29;20031;-77
2023/11/04 05:23:24;;;;;;;6.15;1.95;;;;;;;4.69;100.00;98604.72;4899681;29;20107;-76
2023/11/04 05:26:10;;;;;;;4.72;1.55;;;;;;;4.65;100.00;98604.50;4884238;29;20044;-76
2023/11/04 05:28:56;;;;;;;8.93;1.70;;;;;;;4.64;100.00;98598.41;4901643;29;20044;-76
2023/11/04 05:31:42;;;;;;;5.43;1.23;;;;;;;4.64;100.00;98593.09;4925368;29;20481;-77
2023/11/04 05:34:28;;;;;;;6.78;1.23;;;;;;;4.60;100.00;98592.06;4883584;29;20119;-77
2023/11/04 05:37:13;;;;;;;3.40;1.70;;;;;;;4.59;100.00;98595.81;4925370;29;20036;-79
2023/11/04 05:39:59;;;;;;;4.53;1.10;;;;;;;4.59;100.00;98593.16;4903567;29;20459;-78
2023/11/04 05:42:45;;;;;;;3.38;1.10;;;;;;;4.56;100.00;98595.59;4909403;29;20039;-76
2023/11/04 05:45:31;;;;;;;1.98;1.00;;;;;;;4.53;100.00;98598.78;4913914;29;20048;-79
2023/11/04 05:48:19;;;;;;;2.92;1.58;;;;;;;4.45;100.00;98594.91;4915008;29;20040;-76
2023/11/04 05:51:05;;;;;;;5.18;1.55;;;;;;;4.41;100.00;98588.59;4913212;29;20050;-77
2023/11/04 05:53:53;;;;;;;5.80;1.90;;;;;;;4.34;100.00;98588.16;4911954;29;20042;-76
2023/11/04 05:56:39;;;;;;;4.90;1.90;;;;;;;4.29;100.00;98585.53;4905725;29;20047;-77
2023/11/04 05:59:30;;;;;;;4.07;2.38;;;;;;;4.27;100.00;98599.06;4911018;29;20107;-73
2023/11/04 06:02:15;;;;;;;4.15;2.05;;;;;;;4.27;100.00;98598.28;4925945;29;20470;-75
2023/11/04 06:05:01;;;;;;;3.80;1.48;;;;;;;4.20;100.00;98581.91;4926045;29;20458;-76
2023/11/04 06:07:48;;;;;;;4.40;1.35;;;;;;;4.17;100.00;98583.25;4893721;29;20051;-74
2023/11/04 06:10:33;;;;;;;2.78;1.20;;;;;;;4.13;100.00;98586.75;4904301;29;20040;-77
2023/11/04 06:13:20;;;;;;;3.28;1.30;;;;;;;4.18;100.00;98590.13;4907737;29;20429;-76
2023/11/04 06:16:06;;;;;;;4.35;1.17;;;;;;;4.19;100.00;98591.72;4907271;29;20028;-74
2023/11/04 06:18:52;;;;;;;2.60;0.82;;;;;;;4.18;100.00;98589.34;4902762;29;20729;-75
2023/11/04 06:21:37;;;;;;;4.18;1.10;;;;;;;4.18;100.00;98584.84;4906969;29;20047;-77
2023/11/04 06:24:23;;;;;;;4.65;1.50;;;;;;;4.16;100.00;98589.63;4916435;29;20118;-80
2023/11/04 06:27:08;;;;;;;7.45;1.67;;;;;;;4.17;100.00;98579.81;4906215;29;20035;-76
2023/11/04 06:29:54;;;;;;;4.65;1.20;;;;;;;4.15;100.00;98584.63;4916622;29;20043;-78
2023/11/04 06:32:40;;;;;;;5.95;1.15;;;;;;;4.11;100.00;98585.16;4912683;29;20098;-77
2023/11/04 06:35:26;;;;;;;9.82;1.92;;;;;;;4.09;100.00;98576.72;4924939;29;20150;-78
2023/11/04 06:38:13;;;;;;;3.92;1.38;;;;;;;4.17;100.00;98570.00;4921228;29;20039;-76
2023/11/04 06:40:59;;;;;;;3.53;1.30;;;;;;;4.20;100.00;98574.78;4898292;29;20083;-76
2023/11/04 06:43:44;;;;;;;4.63;1.75;;;;;;;4.21;100.00;98563.09;4923511;29;20502;-76
2023/11/04 06:46:30;;;;;;;4.00;1.23;;;;;;;4.25;100.00;98563.31;4924521;29;20529;-77
2023/11/04 06:49:16;;;;;;;7.07;1.42;;;;;;;4.32;100.00;98566.41;4914498;29;20047;-77
2023/11/04 06:52:01;;;;;;;4.68;1.50;;;;;;;4.38;100.00;98565.28;4917222;29;20387;-77
2023/11/04 06:54:27;;;;;;;5.78;1.50;;;;;;;4.45;100.00;98557.78;4918850;29;20046;-76
2023/11/04 06:56:54;;;;;;;3.55;1.30;;;;;;;4.53;100.00;98565.13;4924251;29;20032;-76
2023/11/04 06:59:21;;;;;;;4.57;1.50;;;;;;;4.60;100.00;98549.66;4908780;29;20107;-78
2023/11/04 07:01:48;;;;;;;5.32;1.00;;;;;;;4.68;100.00;98544.84;4924713;29;20031;-76
2023/11/04 07:04:13;;;;;;;4.80;1.40;;;;;;;4.74;100.00;98546.31;4925064;29;20084;-76
2023/11/04 07:06:39;;;;;;;4.68;1.60;;;;;;;4.77;100.00;98551.84;4904980;29;20056;-78
2023/11/04 07:09:04;;;;;;;5.20;1.15;;;;;;;4.80;100.00;98548.63;4896020;29;20040;-78
2023/11/04 07:11:30;;;;;;;3.30;1.40;;;;;;;4.83;100.00;98553.38;4887789;29;20052;-77
2023/11/04 07:13:55;;;;;;;4.13;1.20;;;;;;;4.84;100.00;98548.84;4891456;29;20172;-76
2023/11/04 07:16:22;;;;;;;5.47;2.90;;;;;;;4.88;100.00;98552.53;4907195;29;20074;-79
2023/11/04 07:18:47;;;;;;;7.85;3.03;;;;;;;4.89;100.00;98557.53;4891342;29;20071;-78
2023/11/04 07:21:13;;;;;;;5.60;2.17;;;;;;;4.92;100.00;98548.22;4912783;29;20043;-78
2023/11/04 07:23:38;;;;;;;3.72;1.23;;;;;;;4.96;100.00;98545.78;4919051;29;20509;-78
2023/11/04 07:26:06;;;;;;;3.20;1.15;;;;;;;4.98;100.00;98544.41;4906706;29;20049;-75
2023/11/04 07:28:35;;;;;;;4.85;1.25;;;;;;;5.01;100.00;98535.09;4897210;29;20047;-75
2023/11/04 07:31:02;;;;;;;5.13;0.93;;;;;;;5.04;100.00;98543.28;4936490;28;20126;-78
2023/11/04 07:33:28;;;;;;;4.32;1.40;;;;;;;5.14;100.00;98537.81;4917690;29;20532;-78
2023/11/04 07:35:53;;;;;;;4.97;1.40;;;;;;;5.19;100.00;98539.63;4911460;29;20032;-76
2023/11/04 07:38:19;;;;;;;2.80;1.35;;;;;;;5.24;100.00;98536.09;4893987;29;20046;-74
2023/11/04 07:40:44;;;;;;;6.03;1.20;;;;;;;5.27;100.00;98533.66;4933432;29;20035;-73
2023/11/04 07:43:10;;;;;;;4.53;1.10;;;;;;;5.35;100.00;98532.22;4913843;29;20078;-74
2023/11/04 07:45:37;;;;;;;6.80;1.30;;;;;;;5.39;100.00;98527.91;4934436;29;20043;-73
2023/11/04 07:48:04;;;;;;;2.95;1.00;;;;;;;5.47;100.00;98535.22;4928863;29;20035;-72
2023/11/04 07:50:30;;;;;;;6.18;1.25;;;;;;;5.52;100.00;98532.47;4927843;29;20059;-77
2023/11/04 07:52:56;;;;;;;3.80;1.00;;;;;;;5.54;100.00;98530.31;4917046;29;20035;-77
2023/11/04 07:55:23;;;;;;;4.78;1.42;;;;;;;5.60;100.00;98528.38;4934370;29;20051;-78
2023/11/04 07:57:49;;;;;;;3.78;1.10;;;;;;;5.63;100.00;98522.50;4903002;29;20035;-81
2023/11/04 08:00:16;;;;;;;5.30;1.50;;;;;;;5.69;100.00;98518.66;4909605;29;20043;-79
2023/11/04 08:02:42;;;;;;;2.75;0.85;;;;;;;5.72;100.00;98516.22;4918844;29;20422;-75
2023/11/04 08:05:09;;;;;;;4.07;1.20;;;;;;;5.76;100.00;98513.78;4912050;29;20489;-73
2023/11/04 08:07:36;;;;;;;3.22;1.40;;;;;;;5.82;100.00;98519.78;4926786;29;20039;-75
2023/11/04 08:10:04;;;;;;;2.83;1.00;;;;;;;5.87;100.00;98501.09;4928988;29;20032;-73
2023/11/04 08:12:30;;;;;;;3.25;1.13;;;;;;;5.95;100.00;98511.06;4926206;29;20036;-78
2023/11/04 08:14:58;;;;;;;5.00;1.00;;;;;;;6.13;100.00;98512.88;4927038;29;20036;-80
2023/11/04 08:17:23;;;;;;;5.07;1.15;;;;;;;6.26;100.00;98503.34;4899509;29;20043;-78
2023/11/04 08:19:50;;;;;;;3.13;1.13;;;;;;;6.36;100.00;98499.69;4921892;29;20041;-77
2023/11/04 08:22:16;;;;;;;3.13;0.88;;;;;;;6.45;100.00;98479.31;4928698;29;20040;-74
2023/11/04 08:24:42;;;;;;;2.42;0.77;;;;;;;6.54;100.00;98477.50;4914486;29;20385;-75
2023/11/04 08:27:09;;;;;;;2.15;1.00;;;;;;;6.63;100.00;98486.34;4901415;29;20047;-77
2023/11/04 08:29:34;;;;;;;3.80;1.30;;;;;;;6.70;100.00;98488.59;4915539;29;20040;-74
2023/11/04 08:32:00;;;;;;;4.93;0.88;;;;;;;6.80;100.00;98497.16;4912148;29;20448;-72
2023/11/04 08:34:27;;;;;;;;;;;;;;;6.82;100.00;98479.03;4931991;29;20516;-80
2023/11/04 08:36:52;;;;;;;4.68;1.88;;;;;;;6.90;100.00;98474.06;4923972;29;19914;-79
2023/11/04 08:39:19;;;;;;;2.50;1.20;;;;;;;6.87;100.00;98470.16;4922939;29;20529;-75
2023/11/04 08:41:45;;;;;;;4.05;1.10;;;;;;;6.98;100.00;98473.38;4915271;29;20036;-78
2023/11/04 08:44:17;;;;;;;2.78;1.15;;;;;;;7.06;100.00;98468.13;4911239;29;20043;-75
2023/11/04 08:46:43;;;;;;;2.40;1.00;;;;;;;7.14;100.00;98471.94;4918391;29;20580;-74
2023/11/04 08:49:09;;;;;;;5.97;0.88;;;;;;;7.28;100.00;98463.91;4929725;29;20043;-77
2023/11/04 08:51:36;;;;;;;3.80;1.48;;;;;;;7.34;100.00;98466.13;4908379;29;20402;-76
2023/11/04 08:54:02;;;;;;;4.03;1.20;;;;;;;7.45;100.00;98468.53;4911154;29;20114;-78
2023/11/04 08:56:28;;;;;;;3.03;1.17;;;;;;;7.51;100.00;98469.97;4887385;29;20135;-77
2023/11/04 08:58:53;;;;;;;5.15;1.17;;;;;;;7.53;100.00;98465.94;4920750;29;20031;-77
2023/11/04 09:01:24;;;;;;;3.30;0.85;;;;;;;7.53;100.00;98460.63;4894250;29;20565;-80
2023/11/04 09:03:51;;;;;;;2.58;1.20;;;;;;;7.53;100.00;98459.84;4901460;29;20028;-75
2023/11/04 09:06:16;;;;;;;3.25;1.52;;;;;;;7.52;100.00;98460.91;4908091;29;20047;-77
2023/11/04 09:08:42;;;;;;;3.30;1.52;;;;;;;7.52;100.00;98471.56;4907435;29;20450;-73
2023/11/04 09:11:08;;;;;;;5.40;0.90;;;;;;;7.54;100.00;98462.19;4923137;29;20054;-73
2023/11/04 09:13:34;;;;;;;2.53;1.60;;;;;;;7.55;100.00;98466.41;4927264;29;20036;-77
2023/11/04 09:16:02;;;;;;;2.45;0.90;;;;;;;7.61;100.00;98464.41;4896151;29;20040;-80
2023/11/04 09:18:28;;;;;;;3.60;1.20;;;;;;;7.65;100.00;98462.69;4912056;29;20509;-79
2023/11/04 09:20:54;;;;;;;4.88;1.77;;;;;;;7.71;100.00;98458.81;4926214;29;20123;-79
2023/11/04 09:23:20;;;;;;;2.83;0.93;;;;;;;7.75;100.00;98467.00;4896083;29;20036;-77
2023/11/04 09:25:46;;;;;;;1.95;1.00;;;;;;;7.81;100.00;98465.78;4908843;29;20035;-78
2023/11/04 09:28:12;;;;;;;2.53;1.27;;;;;;;7.86;100.00;98463.00;4923869;29;20027;-77
2023/11/04 09:30:38;;;;;;;1.90;0.90;;;;;;;7.85;100.00;98459.50;4895780;29;20134;-78
2023/11/04 09:33:03;;;;;;;3.85;1.50;;;;;;;7.89;100.00;98459.69;4903043;29;20632;-78
2023/11/04 09:35:29;;;;;;;3.95;1.20;;;;;;;7.90;100.00;98454.06;4907535;29;20589;-79
2023/11/04 09:37:56;;;;;;;2.15;1.00;;;;;;;7.97;100.00;98452.81;4910636;29;20032;-77
2023/11/04 09:40:23;;;;;;;4.38;0.90;;;;;;;8.03;100.00;98456.94;4905478;29;20502;-78
2023/11/04 09:42:49;;;;;;;3.28;1.00;;;;;;;8.09;100.00;98453.03;4926266;29;20115;-73
2023/11/04 09:45:21;;;;;;;3.15;1.08;;;;;;;8.11;100.00;98454.28;4925721;29;20150;-76
2023/11/04 09:47:49;;;;;;;4.10;1.00;;;;;;;8.15;100.00;98454.47;4907531;29;20450;-77
2023/11/04 09:50:15;;;;;;;2.47;0.80;;;;;;;8.15;100.00;98446.47;4923130;29;20500;-78
2023/11/04 09:52:46;;;;;;;3.00;1.20;;;;;;;8.24;100.00;98457.16;4921201;29;20127;-79
2023/11/04 09:55:14;;;;;;;1.45;0.88;;;;;;;8.27;100.00;98452.00;4908593;29;20572;-77
2023/11/04 09:57:41;;;;;;;4.30;1.10;;;;;;;8.34;100.00;98447.00;4923198;29;20063;-76
2023/11/04 10:00:08;;;;;;;3.00;0.90;;;;;;;8.41;100.00;98439.34;4923009;29;20490;-74
2023/11/04 10:02:40;;;;;;;2.92;1.00;;;;;;;8.49;100.00;98445.78;4900726;29;20043;-78
2023/11/04 10:05:06;;;;;;;4.13;1.05;;;;;;;8.55;100.00;98435.78;4920457;29;20808;-76
2023/11/04 10:07:32;;;;;;;2.97;1.20;;;;;;;8.64;100.00;98439.22;4919677;29;20096;-78
2023/11/04 10:09:58;;;;;;;4.63;1.00;;;;;;;8.70;100.00;98436.09;4922662;29;20040;-77
2023/11/04 10:12:24;;;;;;;4.75;1.48;;;;;;;8.75;100.00;98435.16;4899434;29;20039;-78
2023/11/04 10:14:50;;;;;;;1.88;0.95;;;;;;;8.78;100.00;98429.19;4887424;29;20047;-76
2023/11/04 10:17:15;;;;;;;2.60;1.00;;;;;;;8.87;100.00;98429.97;4906797;29;20039;-76
2023/11/04 10:19:41;;;;;;;1.70;1.02;;;;;;;8.93;100.00;98426.03;4928807;29;20123;-75
2023/11/04 10:22:09;;;;;;;3.22;0.85;;;;;;;8.97;100.00;98424.31;4924990;29;20037;-74
2023/11/04 10:24:35;;;;;;;2.35;0.90;;;;;;;9.07;100.00;98425.88;4922973;29;20043;-73
2023/11/04 10:27:00;;;;;;;2.08;0.73;;;;;;;9.10;100.00;98419.91;4927859;29;20473;-73
2023/11/04 10:29:26;;;;;;;1.75;0.73;;;;;;;9.18;100.00;98421.00;4911597;29;20082;-76
2023/11/04 10:31:52;;;;;;;3.58;1.00;;;;;;;9.23;100.00;98412.84;4914085;29;20042;-76
2023/11/04 10:34:27;;;;;;;3.72;0.77;;;;;;;9.31;100.00;98412.03;4920155;29;20062;-78
2023/11/04 10:36:54;;;;;;;3.55;0.90;;;;;;;9.38;100.00;98409.66;4909615;29;20092;-79
2023/11/04 10:39:22;;;;;;;2.13;1.00;;;;;;;9.41;100.00;98408.22;4906217;29;20032;-73
2023/11/04 10:41:56;;;;;;;2.90;0.88;;;;;;;9.49;100.00;98397.53;4919468;29;20040;-75
2023/11/04 10:44:28;;;;;;;1.55;0.70;;;;;;;9.50;100.00;98391.09;4922103;29;20130;-76
2023/11/04 10:47:21;;;;;;;3.95;0.82;;;;;;;9.55;100.00;98398.13;4908217;29;20040;-73
2023/11/04 10:49:57;;;;;;;1.38;0.70;;;;;;;9.66;100.00;98391.34;4915280;29;21121;-74
2023/11/04 10:52:31;;;;;;;1.33;0.68;;;;;;;9.76;100.00;98387.53;4912470;29;20123;-73
2023/11/04 10:55:13;;;;;;;2.20;0.50;;;;;;;9.77;100.00;98381.09;4896351;29;20042;-73
2023/11/04 10:57:41;;;;;;;3.13;1.65;;;;;;;9.86;100.00;98371.13;4897071;29;20410;-77
2023/11/04 11:00:19;;;;;;;2.30;0.82;;;;;;;9.91;100.00;98373.63;4926709;29;20086;-75
2023/11/04 11:02:47;;;;;;;;;;;;;;;9.98;100.00;98373.91;4915234;29;20066;-74
2023/11/04 11:05:14;;;;;;;8.80;3.22;;;;;;;10.04;100.00;98367.25;4931398;29;20043;-74
2023/11/04 11:07:44;;;;;;;4.35;1.20;;;;;;;10.15;100.00;98356.97;4929109;29;20527;-74
2023/11/04 11:10:13;;;;;;;2.97;0.93;;;;;;;10.13;100.00;98354.63;4915812;29;20050;-77
2023/11/04 11:12:52;;;;;;;1.50;0.75;;;;;;;10.04;100.00;98369.94;4917908;29;20054;-74
2023/11/04 11:15:19;;;;;;;1.60;0.82;;;;;;;10.00;100.00;98360.19;4918479;29;20040;-75
2023/11/04 11:18:01;;;;;;;1.23;0.80;;;;;;;9.93;100.00;98366.06;4915861;29;20059;-72
2023/11/04 11:20:35;;;;;;;2.97;1.25;;;;;;;9.91;100.00;98365.59;4927399;29;20036;-76
2023/11/04 11:23:08;;;;;;;2.85;1.00;;;;;;;9.95;100.00;98360.38;4911311;29;20042;-74
2023/11/04 11:25:36;;;;;;;2.85;0.93;;;;;;;9.94;100.00;98362.28;4884316;29;20047;-74
2023/11/04 11:28:04;;;;;;;3.15;0.82;;;;;;;9.98;100.00;98357.84;4916656;29;20040;-76
2023/11/04 11:30:42;;;;;;;2.13;0.90;;;;;;;10.04;100.00;98355.78;4916664;29;20135;-77
2023/11/04 11:33:10;;;;;;;1.88;0.77;;;;;;;10.07;100.00;98355.13;4928708;29;20040;-74
2023/11/04 11:36:13;;;;;;;1.77;1.00;;;;;;;10.09;100.00;98345.69;4932202;29;20047;-73
2023/11/04 11:38:45;;;;;;;1.33;0.80;;;;;;;10.11;100.00;98346.13;4860609;29;20517;-76
2023/11/04 11:41:15;;;;;;;1.73;0.70;;;;;;;10.11;100.00;98346.13;4901431;29;20048;-77
2023/11/04 11:43:51;;;;;;;1.98;1.00;;;;;;;10.10;100.00;98344.59;4928940;29;20481;-74
2023/11/04 11:46:17;;;;;;;3.05;1.02;;;;;;;10.07;100.00;98347.88;4904809;29;20044;-74
2023/11/04 11:48:44;;;;;;;2.42;1.08;;;;;;;10.03;100.00;98344.31;4928213;29;20032;-75
2023/11/04 11:51:12;;;;;;;1.88;1.10;;;;;;;10.01;100.00;98335.81;4934871;29;20036;-74
2023/11/04 11:53:41;;;;;;;3.22;1.02;;;;;;;10.00;100.00;98330.78;4926073;29;20568;-73
2023/11/04 11:56:08;;;;;;;2.17;0.68;;;;;;;10.04;100.00;98329.81;4902360;29;20047;-74
2023/11/04 11:58:34;;;;;;;1.83;1.05;;;;;;;10.07;100.00;98328.38;4900434;29;20024;-75
2023/11/04 12:01:04;;;;;;;2.85;0.77;;;;;;;10.10;100.00;98328.53;4889476;29;20044;-74
2023/11/04 12:03:33;;;;;;;2.13;0.95;;;;;;;10.10;100.00;98323.19;4927396;29;20047;-80
2023/11/04 12:05:59;;;;;;;3.33;0.77;;;;;;;10.13;100.00;98317.16;4901660;29;20117;-74
2023/11/04 12:08:26;;;;;;;1.50;0.77;;;;;;;10.12;100.00;98312.94;4914325;29;20044;-75
2023/11/04 12:10:52;;;;;;;3.38;1.05;;;;;;;10.21;100.00;98304.06;4913146;29;20040;-73
2023/11/04 12:13:17;;;;;;;1.85;0.93;;;;;;;10.23;100.00;98293.84;4894247;29;20227;-72
2023/11/04 12:15:44;;;;;;;2.78;1.10;;;;;;;10.33;100.00;98288.88;4893380;29;20498;-76
2023/11/04 12:18:12;;;;;;;1.33;0.75;;;;;;;10.37;100.00;98291.72;4912193;29;20042;-77